Time;durP1;ratioP1;P1;durP2;ratioP2;P2;SDS_P1;SDS_P2;PMS_P1;PMS_P2;Temp;Humidity;BMP_temperature;BMP_pressure;BME280_temperature;BME280_humidity;BME280_pressure;Samples;Min_cycle;Max_cycle;Signal;HPM_P1;HPM_P2
2022/06/19 00:00:09;;;;;;;7.00;6.60;;;;;;;22.88;77.94;100248.34;6060526;23;20050;-70
2022/06/19 00:02:37;;;;;;;6.65;6.25;;;;;;;22.69;77.71;100209.41;6086481;23;20022;-69
2022/06/19 00:05:04;;;;;;;6.32;6.03;;;;;;;22.78;79.20;100228.97;6051449;23;20097;-70
2022/06/19 00:07:30;;;;;;;6.90;6.50;;;;;;;22.62;79.39;100219.13;6087728;23;20526;-71
2022/06/19 00:09:57;;;;;;;8.15;7.65;;;;;;;22.63;79.59;100207.41;6022279;23;20089;-70
2022/06/19 00:12:23;;;;;;;8.60;8.10;;;;;;;22.75;79.56;100222.09;6082554;23;20454;-70
2022/06/19 00:14:50;;;;;;;8.23;7.72;;;;;;;22.78;78.89;100218.25;6060867;23;20447;-70
2022/06/19 00:17:17;;;;;;;6.30;6.00;;;;;;;22.78;79.39;100226.28;6057150;23;20050;-71
2022/06/19 00:19:44;;;;;;;8.60;7.97;;;;;;;22.79;78.77;100201.19;6053369;23;20089;-71
2022/06/19 00:22:10;;;;;;;7.13;6.72;;;;;;;22.56;78.57;100179.69;6051078;23;20389;-71
2022/06/19 00:24:37;;;;;;;6.13;5.82;;;;;;;22.76;78.83;100207.72;6072989;23;20082;-73
2022/06/19 00:27:04;;;;;;;6.70;6.30;;;;;;;22.74;79.72;100198.22;6050956;23;20033;-71
2022/06/19 00:29:30;;;;;;;6.75;6.35;;;;;;;22.70;80.08;100184.34;6060055;23;20018;-72
2022/06/19 00:31:57;;;;;;;8.23;7.60;;;;;;;22.66;79.91;100185.69;6076958;23;20022;-71
2022/06/19 00:34:23;;;;;;;6.90;6.50;;;;;;;22.49;81.93;100184.88;6082024;23;20273;-70
2022/06/19 00:36:51;;;;;;;8.40;7.90;;;;;;;22.11;82.29;100131.97;6048171;23;20082;-71
2022/06/19 00:39:19;;;;;;;7.13;6.72;;;;;;;22.20;83.64;100156.00;6070205;23;20247;-71
2022/06/19 00:41:46;;;;;;;7.93;7.53;;;;;;;22.19;84.94;100170.34;6044572;23;20097;-71
2022/06/19 00:44:14;;;;;;;7.10;6.70;;;;;;;22.14;85.07;100165.53;6061072;23;20499;-71
2022/06/19 00:47:02;;;;;;;7.03;6.60;;;;;;;22.09;85.77;100166.03;6045018;23;20046;-72
2022/06/19 00:49:32;;;;;;;7.82;7.32;;;;;;;21.98;86.71;100168.22;6078017;23;20084;-71
2022/06/19 00:52:06;;;;;;;7.47;6.78;;;;;;;21.77;88.29;100180.22;6052581;23;20325;-71
2022/06/19 00:54:56;;;;;;;7.18;6.78;;;;;;;21.74;88.05;100163.69;6074481;23;20277;-71
2022/06/19 00:57:24;;;;;;;7.65;6.95;;;;;;;21.73;88.14;100156.66;6043834;23;20021;-71
2022/06/19 01:00:01;;;;;;;8.35;7.88;;;;;;;21.72;88.24;100150.50;6074190;23;20040;-70
2022/06/19 01:02:28;;;;;;;7.00;6.50;;;;;;;21.58;87.44;100137.81;6049191;23;20014;-71
2022/06/19 01:04:55;;;;;;;7.75;7.35;;;;;;;21.55;86.78;100117.63;6082899;23;20033;-71
2022/06/19 01:07:24;;;;;;;7.00;6.60;;;;;;;21.74;86.68;100137.81;6052813;23;20022;-71
2022/06/19 01:09:51;;;;;;;8.93;8.32;;;;;;;21.74;87.62;100132.47;6080287;23;20024;-71
2022/06/19 01:12:20;;;;;;;7.25;6.75;;;;;;;21.75;86.69;100123.47;6067337;23;20035;-71
2022/06/19 01:14:49;;;;;;;8.98;8.48;;;;;;;21.76;86.18;100118.97;6022783;23;20022;-71
2022/06/19 01:17:16;;;;;;;6.95;6.55;;;;;;;21.54;87.04;100085.75;6083757;23;20094;-71
2022/06/19 01:19:44;;;;;;;8.23;7.80;;;;;;;21.65;88.43;100115.63;6049967;23;20022;-71
2022/06/19 01:22:29;;;;;;;7.03;6.63;;;;;;;21.62;88.17;100109.78;6082199;23;20078;-71
2022/06/19 01:25:10;;;;;;;7.95;7.45;;;;;;;21.64;87.42;100099.75;6047832;23;20013;-71
2022/06/19 01:30:49;;;;;;;8.23;7.72;;;;;;;21.59;88.14;100102.06;5896056;24;20040;-71
2022/06/19 01:33:20;;;;;;;7.00;6.50;;;;;;;21.56;88.45;100107.75;5937671;24;20169;-71
2022/06/19 01:35:49;;;;;;;8.55;8.05;;;;;;;21.55;89.31;100122.97;5977266;23;20112;-70
2022/06/19 01:38:20;;;;;;;6.40;6.10;;;;;;;21.30;89.19;100061.47;6077796;23;20073;-71
2022/06/19 01:40:51;;;;;;;8.52;7.93;;;;;;;21.44;89.72;100089.38;6049680;23;20038;-71
2022/06/19 01:43:20;;;;;;;7.63;7.13;;;;;;;21.42;90.43;100091.34;6078678;23;20499;-71
2022/06/19 01:45:52;;;;;;;9.30;8.80;;;;;;;21.45;90.61;100083.06;6038095;23;20583;-71
2022/06/19 01:48:21;;;;;;;5.93;5.63;;;;;;;21.42;90.89;100080.69;6052282;23;20042;-71
2022/06/19 01:50:49;;;;;;;7.90;7.45;;;;;;;21.05;92.45;100041.94;6072755;23;20037;-71
2022/06/19 01:53:31;;;;;;;7.75;7.22;;;;;;;21.23;92.89;100081.00;6083261;23;20025;-71
2022/06/19 01:55:58;;;;;;;7.10;6.68;;;;;;;20.98;93.54;100045.44;6045691;23;20039;-72
2022/06/19 01:58:29;;;;;;;7.38;6.88;;;;;;;21.21;93.95;100070.50;6082485;23;20143;-71
2022/06/19 02:00:55;;;;;;;8.20;7.80;;;;;;;21.14;92.80;100064.13;6048258;23;20266;-70
2022/06/19 02:03:30;;;;;;;6.50;6.10;;;;;;;21.23;93.05;100076.50;6047681;23;20085;-70
2022/06/19 02:05:58;;;;;;;8.23;7.72;;;;;;;21.02;94.72;100076.94;6077831;23;20030;-70
2022/06/19 02:08:27;;;;;;;7.25;6.82;;;;;;;20.90;94.86;100072.91;6051453;23;20272;-68
2022/06/19 02:10:55;;;;;;;8.70;8.20;;;;;;;20.89;94.18;100053.41;6080888;23;20017;-68
2022/06/19 02:13:23;;;;;;;6.97;6.47;;;;;;;20.84;93.79;100042.38;6088579;23;20044;-68
2022/06/19 02:15:52;;;;;;;8.57;8.07;;;;;;;20.83;94.30;100038.06;6045624;23;20115;-68
2022/06/19 02:18:24;;;;;;;6.60;6.20;;;;;;;20.85;94.72;100035.25;6086425;23;20598;-68
2022/06/19 02:20:51;;;;;;;9.23;8.63;;;;;;;20.41;98.43;100001.59;6050857;23;20425;-68
2022/06/19 02:23:20;;;;;;;7.20;6.70;;;;;;;20.35;100.00;100038.69;6078075;23;20011;-68
2022/06/19 02:25:48;;;;;;;6.95;6.55;;;;;;;20.58;98.67;100074.44;6051338;23;20010;-68
2022/06/19 02:28:15;;;;;;;6.63;6.22;;;;;;;20.59;98.85;100070.81;6078030;23;20625;-70
2022/06/19 02:30:42;;;;;;;7.20;6.80;;;;;;;20.46;99.95;100044.56;6051308;23;20040;-70
2022/06/19 02:33:12;;;;;;;7.43;7.00;;;;;;;20.44;98.83;100032.41;6080783;23;20034;-70
2022/06/19 02:35:39;;;;;;;7.45;6.95;;;;;;;20.51;99.42;100068.09;6050729;23;20034;-70
2022/06/19 02:38:07;;;;;;;6.47;6.15;;;;;;;20.38;100.00;100073.84;6085649;23;20685;-70
2022/06/19 02:41:03;;;;;;;6.88;6.47;;;;;;;20.48;100.00;100097.72;6051561;23;20034;-70
2022/06/19 02:43:33;;;;;;;6.68;6.28;;;;;;;20.41;100.00;100094.88;6075838;23;20017;-68
2022/06/19 02:46:00;;;;;;;6.22;5.93;;;;;;;20.31;100.00;100099.47;6050410;23;20058;-68
2022/06/19 02:48:30;;;;;;;6.50;6.07;;;;;;;20.17;100.00;100090.22;6085559;23;20063;-68
2022/06/19 02:51:00;;;;;;;7.60;7.07;;;;;;;20.44;100.00;100147.84;6057140;23;20113;-67
2022/06/19 02:53:27;;;;;;;5.90;5.60;;;;;;;20.22;100.00;100103.91;6073333;23;20046;-68
2022/06/19 02:55:54;;;;;;;6.97;6.68;;;;;;;19.99;100.00;100060.16;6060510;23;20029;-69
2022/06/19 02:58:21;;;;;;;6.00;5.70;;;;;;;20.01;100.00;100108.78;6052147;23;20079;-69
2022/06/19 03:00:49;;;;;;;7.45;7.05;;;;;;;19.88;100.00;100122.47;6078108;23;20097;-69
2022/06/19 03:03:35;;;;;;;5.55;5.32;;;;;;;19.83;100.00;100130.94;6051612;23;20037;-69
2022/06/19 03:06:03;;;;;;;6.00;5.70;;;;;;;19.70;100.00;100120.66;6084715;23;20037;-69
2022/06/19 03:08:30;;;;;;;5.80;5.50;;;;;;;19.91;98.82;100119.53;6060253;23;20026;-68
2022/06/19 03:10:56;;;;;;;6.70;6.38;;;;;;;19.75;98.57;100128.22;6098843;23;20345;-68
2022/06/19 03:13:25;;;;;;;6.25;5.75;;;;;;;19.52;97.76;100122.47;6063621;23;20030;-69
2022/06/19 03:16:02;;;;;;;7.03;6.72;;;;;;;19.53;98.73;100145.44;6056676;23;20048;-68
2022/06/19 03:18:30;;;;;;;5.90;5.60;;;;;;;19.39;97.87;100152.13;6085880;23;20360;-68
2022/06/19 03:20:57;;;;;;;6.85;6.55;;;;;;;19.34;98.72;100178.34;6044851;23;20039;-70
2022/06/19 03:23:23;;;;;;;5.78;5.47;;;;;;;19.19;97.70;100179.84;6074157;23;20034;-67
2022/06/19 03:25:50;;;;;;;7.15;6.80;;;;;;;19.06;94.98;100161.56;6051768;23;20339;-67
2022/06/19 03:28:16;;;;;;;5.72;5.40;;;;;;;19.01;94.46;100170.00;6068998;23;20368;-69
2022/06/19 03:30:44;;;;;;;7.22;6.85;;;;;;;19.10;92.20;100216.13;6051749;23;20050;-68
2022/06/19 03:33:10;;;;;;;5.60;5.30;;;;;;;18.87;90.44;100189.09;6070990;23;20412;-68
2022/06/19 03:35:37;;;;;;;5.45;5.25;;;;;;;18.82;90.84;100209.94;6053319;23;20057;-67
2022/06/19 03:38:03;;;;;;;5.60;5.30;;;;;;;18.56;90.86;100199.91;6081465;23;20046;-68
2022/06/19 03:40:30;;;;;;;5.63;5.32;;;;;;;18.43;89.86;100210.88;6022817;23;20329;-70
2022/06/19 03:42:56;;;;;;;7.20;6.90;;;;;;;18.57;89.74;100245.97;6082937;23;20025;-69
2022/06/19 03:45:22;;;;;;;5.90;5.50;;;;;;;18.52;89.44;100246.38;6052397;23;20605;-71
2022/06/19 03:47:49;;;;;;;7.35;7.05;;;;;;;18.51;87.91;100250.03;6045895;23;20077;-67
2022/06/19 03:50:18;;;;;;;6.07;5.78;;;;;;;18.53;87.00;100254.19;6085218;23;20443;-70
2022/06/19 03:52:46;;;;;;;7.13;6.82;;;;;;;18.45;85.76;100243.44;6050877;23;20012;-70
2022/06/19 03:55:13;;;;;;;5.50;5.30;;;;;;;18.65;84.51;100288.59;6055907;23;20526;-70
2022/06/19 03:57:40;;;;;;;5.93;5.63;;;;;;;18.13;84.83;100270.31;6053525;23;20385;-71
2022/06/19 04:00:09;;;;;;;5.80;5.40;;;;;;;18.22;84.35;100319.09;6051759;23;20026;-68
2022/06/19 04:02:35;;;;;;;5.30;5.10;;;;;;;18.23;85.00;100286.25;6084363;23;20498;-70
2022/06/19 04:05:02;;;;;;;5.45;5.20;;;;;;;18.23;83.42;100318.13;6050121;23;20053;-70
2022/06/19 04:07:29;;;;;;;5.15;4.95;;;;;;;18.30;82.17;100332.50;6083918;23;20028;-71
2022/06/19 04:09:59;;;;;;;5.35;5.15;;;;;;;18.19;80.39;100330.84;6052787;23;20101;-70
2022/06/19 04:12:26;;;;;;;5.28;5.07;;;;;;;17.45;77.79;100217.13;6086343;23;20024;-70
2022/06/19 04:14:52;;;;;;;6.95;6.63;;;;;;;18.23;75.80;100321.63;6074956;23;20026;-70
2022/06/19 04:17:19;;;;;;;5.13;4.93;;;;;;;18.65;74.76;100350.56;6082633;23;20009;-69
2022/06/19 04:19:46;;;;;;;6.70;6.40;;;;;;;18.68;72.87;100341.47;6077234;23;20022;-69
2022/06/19 04:22:13;;;;;;;5.25;5.05;;;;;;;18.59;70.90;100310.44;6051860;23;20237;-70
2022/06/19 04:24:39;;;;;;;5.68;5.45;;;;;;;18.41;71.10;100339.53;6057132;23;20060;-69
2022/06/19 04:27:06;;;;;;;5.40;5.20;;;;;;;18.83;69.13;100358.69;6079359;23;20018;-71
2022/06/19 04:29:32;;;;;;;5.20;5.00;;;;;;;18.80;68.35;100352.81;6058584;23;20018;-70
2022/06/19 04:31:59;;;;;;;6.07;5.70;;;;;;;18.67;67.74;100372.53;6081758;23;20200;-68
2022/06/19 04:34:26;;;;;;;5.30;5.10;;;;;;;18.49;68.14;100316.59;6081689;23;20014;-70
2022/06/19 04:36:52;;;;;;;7.32;7.03;;;;;;;18.78;67.00;100336.13;6047970;23;21747;-67
2022/06/19 04:39:18;;;;;;;5.30;5.10;;;;;;;19.20;64.66;100351.75;6083748;23;20021;-71
2022/06/19 04:41:46;;;;;;;5.22;5.03;;;;;;;19.35;63.08;100307.75;6078237;23;20217;-68
2022/06/19 04:44:15;;;;;;;5.65;5.35;;;;;;;19.24;63.38;100347.81;6053835;23;20073;-67
2022/06/19 04:46:42;;;;;;;5.95;5.68;;;;;;;19.33;62.19;100326.50;6073629;23;20050;-68
2022/06/19 04:49:12;;;;;;;5.40;5.20;;;;;;;19.63;61.56;100345.03;6056053;23;20018;-67
2022/06/19 04:51:39;;;;;;;5.45;5.15;;;;;;;19.93;59.69;100354.56;6075051;23;20094;-68
2022/06/19 04:54:06;;;;;;;5.60;5.20;;;;;;;19.40;60.50;100304.63;6032093;23;20441;-68
2022/06/19 04:56:33;;;;;;;5.30;5.10;;;;;;;20.28;58.60;100331.63;6081946;23;20662;-70
2022/06/19 04:59:00;;;;;;;6.28;5.97;;;;;;;20.27;57.64;100306.81;6051858;23;20081;-70
2022/06/19 05:01:33;;;;;;;5.40;5.20;;;;;;;19.79;59.47;100315.97;6078500;23;20511;-68
2022/06/19 05:04:01;;;;;;;6.07;5.78;;;;;;;19.97;58.49;100333.81;6025844;23;20372;-68
2022/06/19 05:06:28;;;;;;;5.32;5.13;;;;;;;20.10;58.92;100344.91;6077718;23;20092;-70
2022/06/19 05:08:55;;;;;;;6.72;6.32;;;;;;;20.48;57.17;100377.59;6045161;23;20499;-68
2022/06/19 05:11:22;;;;;;;5.70;5.40;;;;;;;20.95;55.28;100436.06;6080348;23;20033;-70
2022/06/19 05:13:50;;;;;;;6.10;5.80;;;;;;;20.91;53.40;100350.19;6037950;23;20097;-69
2022/06/19 05:16:19;;;;;;;5.30;5.10;;;;;;;21.05;53.61;100367.44;6079960;23;20081;-68
2022/06/19 05:18:47;;;;;;;6.55;6.25;;;;;;;20.75;54.25;100360.72;6052758;23;20014;-68
2022/06/19 05:21:20;;;;;;;5.50;5.30;;;;;;;21.29;53.71;100384.63;6081672;23;20034;-69
2022/06/19 05:23:48;;;;;;;7.05;6.75;;;;;;;21.38;52.96;100398.84;6025055;23;20078;-69
2022/06/19 05:26:20;;;;;;;5.60;5.30;;;;;;;21.41;52.27;100380.69;6063375;23;20313;-70
2022/06/19 05:28:50;;;;;;;6.65;6.35;;;;;;;20.33;54.30;100371.97;6052088;23;20476;-69
2022/06/19 05:31:16;;;;;;;5.30;5.10;;;;;;;19.48;56.63;100334.88;6059491;23;20010;-71
2022/06/19 05:33:44;;;;;;;6.70;6.40;;;;;;;19.71;57.86;100382.44;6044334;23;20159;-70
2022/06/19 05:36:11;;;;;;;5.38;5.18;;;;;;;19.28;57.64;100334.13;6074133;23;20010;-71
2022/06/19 05:38:38;;;;;;;6.32;6.03;;;;;;;19.26;58.11;100391.09;6047837;23;20098;-73
2022/06/19 05:41:05;;;;;;;5.60;5.40;;;;;;;18.94;59.66;100389.59;6076821;23;20087;-70
2022/06/19 05:43:34;;;;;;;5.40;5.20;;;;;;;18.34;60.86;100340.09;6023582;23;20242;-70
2022/06/19 05:46:07;;;;;;;5.40;5.20;;;;;;;18.97;60.16;100377.88;6066537;23;20108;-71
2022/06/19 05:48:34;;;;;;;;;;;;;;;19.66;57.61;100371.34;6043968;23;20014;-70
2022/06/19 05:51:03;;;;;;;6.38;6.07;;;;;;;19.20;58.47;100349.94;6077746;23;19910;-70
2022/06/19 05:53:33;;;;;;;5.80;5.50;;;;;;;19.75;58.27;100370.50;6053866;23;20026;-69
2022/06/19 05:56:00;;;;;;;5.47;5.28;;;;;;;19.75;56.90;100372.34;6077953;23;20377;-70
2022/06/19 05:58:27;;;;;;;5.38;5.18;;;;;;;19.39;57.94;100346.38;6049393;23;20010;-72
2022/06/19 06:00:53;;;;;;;7.13;6.72;;;;;;;19.39;57.63;100329.59;6076780;23;20199;-70
2022/06/19 06:03:22;;;;;;;5.60;5.30;;;;;;;19.16;59.41;100337.06;6072094;23;20092;-70
2022/06/19 06:05:49;;;;;;;7.15;6.85;;;;;;;19.42;57.89;100345.25;6050299;23;20467;-70
2022/06/19 06:08:17;;;;;;;5.28;5.07;;;;;;;19.58;58.60;100336.63;6072702;23;20048;-69
2022/06/19 06:10:49;;;;;;;6.40;6.10;;;;;;;19.64;58.12;100307.59;6060600;23;20086;-70
2022/06/19 06:13:16;;;;;;;5.32;5.13;;;;;;;20.39;56.20;100303.91;6075055;23;20268;-72
2022/06/19 06:15:45;;;;;;;6.55;6.25;;;;;;;20.70;54.03;100291.84;6048382;23;20156;-70
2022/06/19 06:18:13;;;;;;;5.63;5.32;;;;;;;20.53;54.57;100290.03;6065146;23;20088;-72
2022/06/19 06:20:40;;;;;;;5.95;5.30;;;;;;;20.76;55.23;100318.88;6045444;23;20495;-68
2022/06/19 06:23:07;;;;;;;6.40;6.10;;;;;;;21.77;52.45;100310.25;6071233;23;20028;-71
2022/06/19 06:25:35;;;;;;;5.72;5.43;;;;;;;21.39;51.23;100310.59;6056718;23;20033;-67
2022/06/19 06:28:02;;;;;;;5.55;5.35;;;;;;;20.87;54.76;100287.47;6077116;23;20280;-69
2022/06/19 06:30:28;;;;;;;5.50;5.30;;;;;;;21.62;53.48;100292.19;6073745;23;20025;-71
2022/06/19 06:33:03;;;;;;;6.10;5.80;;;;;;;20.70;54.46;100256.34;6044172;23;20070;-71
2022/06/19 06:35:30;;;;;;;5.60;5.40;;;;;;;20.76;55.23;100292.22;6081578;23;20461;-74
2022/06/19 06:38:00;;;;;;;6.80;6.50;;;;;;;20.47;57.93;100293.31;6003070;23;20427;-73
2022/06/19 06:40:27;;;;;;;5.50;5.30;;;;;;;20.75;56.37;100304.72;6048784;23;20035;-73
2022/06/19 06:42:55;;;;;;;6.43;6.13;;;;;;;20.29;56.98;100272.00;6012944;23;20034;-74
2022/06/19 06:45:21;;;;;;;5.70;5.40;;;;;;;20.19;57.38;100256.09;6042848;23;20056;-72
2022/06/19 06:47:48;;;;;;;6.95;6.55;;;;;;;21.48;55.80;100344.38;6026301;23;20089;-73
2022/06/19 06:50:14;;;;;;;6.10;5.80;;;;;;;21.73;53.38;100298.22;5991311;23;20029;-76
2022/06/19 06:52:41;;;;;;;6.13;5.82;;;;;;;22.07;52.58;100311.50;6020667;23;20010;-71
2022/06/19 06:55:08;;;;;;;5.50;5.30;;;;;;;21.97;53.00;100342.88;5989775;23;20050;-71
2022/06/19 06:57:34;;;;;;;5.60;5.40;;;;;;;22.38;52.87;100359.88;6049469;23;20033;-74
2022/06/19 07:00:00;;;;;;;5.38;5.18;;;;;;;22.77;50.35;100326.28;6017999;23;20552;-72
2022/06/19 07:02:27;;;;;;;5.90;5.60;;;;;;;22.47;48.92;100333.97;6040401;23;20173;-73
2022/06/19 07:04:53;;;;;;;6.90;6.55;;;;;;;21.56;53.27;100406.81;6025283;23;20023;-72
2022/06/19 07:07:20;;;;;;;5.38;5.18;;;;;;;21.39;54.85;100432.53;6019881;23;20321;-72
2022/06/19 07:09:47;;;;;;;6.90;6.60;;;;;;;21.19;55.76;100434.56;6018168;23;20108;-73
2022/06/19 07:12:13;;;;;;;5.25;5.05;;;;;;;22.11;53.59;100497.28;6007381;23;20015;-74
2022/06/19 07:14:40;;;;;;;5.80;5.55;;;;;;;22.33;52.72;100516.41;6050616;23;20153;-72
2022/06/19 07:17:06;;;;;;;5.50;5.30;;;;;;;22.29;52.06;100551.50;6023957;23;20090;-72
2022/06/19 07:19:33;;;;;;;6.97;5.85;;;;;;;22.48;51.67;100574.47;6026408;23;20021;-75
2022/06/19 07:22:00;;;;;;;7.35;5.90;;;;;;;22.30;52.54;100637.91;6016576;23;20002;-71
2022/06/19 07:24:26;;;;;;;5.78;5.47;;;;;;;21.97;51.00;100629.66;6033079;23;20062;-75
2022/06/19 07:26:53;;;;;;;7.03;6.72;;;;;;;22.22;51.83;100638.66;5987379;23;20057;-74
2022/06/19 07:29:19;;;;;;;6.03;5.70;;;;;;;21.79;51.49;100586.94;6030035;23;20042;-73
2022/06/19 07:31:46;;;;;;;6.55;6.25;;;;;;;21.59;51.11;100606.78;5989553;23;20309;-73
2022/06/19 07:34:12;;;;;;;6.65;5.90;;;;;;;21.35;50.49;100626.91;6042587;23;20349;-75
2022/06/19 07:36:39;;;;;;;6.15;5.75;;;;;;;21.25;51.51;100692.88;6024007;23;20030;-75
2022/06/19 07:39:06;;;;;;;6.03;5.72;;;;;;;20.48;51.01;100511.72;6074078;23;20282;-75
2022/06/19 07:41:32;;;;;;;5.90;5.60;;;;;;;20.28;52.81;100496.84;6047435;23;20020;-73
2022/06/19 07:43:59;;;;;;;5.60;5.40;;;;;;;19.27;52.79;100456.63;6016423;23;20273;-73
2022/06/19 07:46:25;;;;;;;5.80;5.50;;;;;;;20.39;51.81;100605.94;6046540;23;20081;-73
2022/06/19 07:51:38;;;;;;;5.70;5.40;;;;;;;20.57;50.77;100606.00;6046037;23;20263;-74
2022/06/19 07:54:04;;;;;;;5.60;5.40;;;;;;;20.73;50.58;100600.06;6048184;23;20048;-73
2022/06/19 07:56:31;;;;;;;5.47;5.28;;;;;;;20.93;49.96;100630.13;6028082;23;20034;-70
2022/06/19 07:58:58;;;;;;;6.40;6.10;;;;;;;20.76;50.07;100601.59;6070653;23;20298;-75
2022/06/19 08:01:25;;;;;;;5.75;5.45;;;;;;;21.32;49.51;100616.53;6049934;23;20019;-76
2022/06/19 08:04:10;;;;;;;5.57;5.32;;;;;;;21.38;48.13;100581.22;6068329;23;20562;-75
2022/06/19 08:06:36;;;;;;;5.85;5.55;;;;;;;21.51;47.52;100613.75;6051375;23;20027;-74
2022/06/19 08:09:03;;;;;;;5.78;5.50;;;;;;;21.22;49.23;100616.59;6074780;23;20064;-73
2022/06/19 08:11:29;;;;;;;5.90;5.60;;;;;;;20.22;49.19;100460.94;6051370;23;20481;-70
2022/06/19 08:13:56;;;;;;;6.80;6.50;;;;;;;20.78;50.05;100568.44;6044521;23;20029;-70
2022/06/19 08:16:22;;;;;;;5.70;5.50;;;;;;;21.16;49.29;100584.34;6075137;23;20074;-69
2022/06/19 08:18:49;;;;;;;5.95;5.68;;;;;;;20.66;50.00;100612.28;6050622;23;20086;-72
2022/06/19 08:21:15;;;;;;;5.35;5.15;;;;;;;20.93;49.33;100590.13;6046524;23;20380;-72
2022/06/19 08:23:41;;;;;;;5.75;5.50;;;;;;;20.87;50.33;100594.22;6047755;23;20047;-70
2022/06/19 08:26:13;;;;;;;5.85;5.55;;;;;;;21.38;48.96;100593.72;6192507;22;20119;-75
2022/06/19 08:28:52;;;;;;;5.47;5.25;;;;;;;21.58;48.85;100611.28;6127860;23;20018;-75
2022/06/19 08:31:18;;;;;;;5.63;5.40;;;;;;;21.96;47.41;100662.69;6129226;23;20167;-74
2022/06/19 08:33:45;;;;;;;6.72;6.43;;;;;;;22.40;46.88;100657.34;6124397;23;20462;-73
2022/06/19 08:36:12;;;;;;;5.38;5.18;;;;;;;21.97;47.59;100661.72;6136501;23;20029;-74
2022/06/19 08:38:44;;;;;;;5.47;5.25;;;;;;;21.67;47.95;100649.59;6129835;23;20029;-72
2022/06/19 08:41:10;;;;;;;;;;;;;;;21.56;47.45;100655.16;6119558;23;20028;-71
2022/06/19 08:44:08;;;;;;;5.70;5.25;;;;;;;21.30;48.74;100640.69;6131314;23;19950;-73
2022/06/19 08:47:12;;;;;;;5.55;5.25;;;;;;;20.32;49.72;100565.69;6121993;23;20112;-72
2022/06/19 08:50:00;;;;;;;5.72;5.43;;;;;;;20.77;50.25;100624.59;6126704;23;20029;-73
2022/06/19 08:52:52;;;;;;;6.30;5.90;;;;;;;21.40;48.99;100607.75;6115315;23;20078;-72
2022/06/19 08:55:35;;;;;;;5.55;5.35;;;;;;;21.70;48.12;100601.22;6120946;23;20515;-73
2022/06/19 08:58:25;;;;;;;5.70;5.28;;;;;;;21.76;46.83;100587.22;6091123;23;20272;-73
2022/06/19 09:01:04;;;;;;;7.15;6.85;;;;;;;20.72;49.16;100617.88;6060936;23;20253;-74
2022/06/19 09:06:46;;;;;;;5.93;5.63;;;;;;;19.47;51.00;100441.47;6109751;23;20096;-71
2022/06/19 09:09:41;;;;;;;5.30;5.10;;;;;;;21.20;49.26;100585.72;6121294;23;20106;-73
2022/06/19 09:12:22;;;;;;;5.85;5.55;;;;;;;21.67;47.87;100602.38;6127777;23;20017;-74
2022/06/19 09:14:58;;;;;;;6.75;6.45;;;;;;;21.78;47.79;100611.13;6117569;23;20024;-72
2022/06/19 09:17:35;;;;;;;5.80;5.50;;;;;;;22.25;46.38;100584.06;6121089;23;20108;-72
2022/06/19 09:20:15;;;;;;;5.70;5.40;;;;;;;22.28;45.71;100600.63;6120351;23;20075;-73
2022/06/19 09:22:59;;;;;;;5.95;5.70;;;;;;;22.27;45.96;100603.44;6112942;23;20026;-73
2022/06/19 09:25:34;;;;;;;5.90;5.60;;;;;;;22.29;45.38;100609.47;6098377;23;20099;-72
2022/06/19 09:28:25;;;;;;;5.80;5.30;;;;;;;22.37;44.32;100577.47;6093581;23;20801;-74
2022/06/19 09:31:00;;;;;;;7.03;6.65;;;;;;;21.41;47.33;100588.94;6116294;23;20105;-72
2022/06/19 09:33:39;;;;;;;16.58;15.77;;;;;;;21.11;47.97;100585.63;6075141;23;20643;-69
2022/06/19 09:36:16;;;;;;;5.30;5.10;;;;;;;21.79;48.70;100581.59;6014826;23;20291;-73
2022/06/19 09:38:55;;;;;;;7.15;6.65;;;;;;;22.19;49.73;100585.53;6080080;23;20029;-70
2022/06/19 09:41:30;;;;;;;6.15;5.85;;;;;;;22.16;48.63;100551.06;6072745;23;20088;-70
2022/06/19 09:44:06;;;;;;;6.75;6.45;;;;;;;22.39;46.43;100564.75;6079019;23;20292;-74
2022/06/19 09:46:39;;;;;;;5.80;5.50;;;;;;;22.60;45.84;100553.63;6074011;23;20335;-73
2022/06/19 09:49:22;;;;;;;5.57;5.38;;;;;;;23.10;44.88;100535.88;6075465;23;20026;-74
2022/06/19 09:51:56;;;;;;;7.20;6.80;;;;;;;23.28;43.49;100547.28;6067952;23;20112;-73
2022/06/19 09:54:32;;;;;;;5.57;5.38;;;;;;;23.40;42.43;100560.34;6080758;23;20021;-70
2022/06/19 09:57:25;;;;;;;6.95;6.32;;;;;;;23.80;43.55;100521.16;6070642;23;20028;-73
2022/06/19 10:00:17;;;;;;;6.32;6.03;;;;;;;23.78;42.62;100529.38;6073577;23;20026;-73
2022/06/19 10:03:18;;;;;;;5.90;5.60;;;;;;;23.89;42.78;100553.13;6078179;23;20537;-69
2022/06/19 10:05:50;;;;;;;7.40;6.95;;;;;;;21.40;45.19;100309.59;6077938;23;20459;-70
2022/06/19 10:08:51;;;;;;;6.18;5.78;;;;;;;23.22;44.67;100539.91;6076199;23;20090;-71
2022/06/19 10:11:26;;;;;;;5.80;5.50;;;;;;;22.12;47.25;100498.94;6088925;23;20022;-69
2022/06/19 10:14:05;;;;;;;7.22;6.82;;;;;;;20.90;51.02;100331.66;6080666;23;20630;-73
2022/06/19 10:16:56;;;;;;;5.45;5.25;;;;;;;20.52;56.40;100221.69;6084653;23;20018;-73
2022/06/19 10:19:37;;;;;;;6.15;5.68;;;;;;;20.31;58.40;100192.75;6074612;23;20009;-73
2022/06/19 10:22:15;;;;;;;5.63;5.43;;;;;;;20.17;59.64;100206.63;6086402;23;20041;-73
2022/06/19 10:25:19;;;;;;;6.10;5.80;;;;;;;20.20;58.47;100216.97;6086416;23;20258;-73
2022/06/19 10:28:15;;;;;;;7.35;7.05;;;;;;;20.19;58.52;100247.28;6075219;23;20046;-70
2022/06/19 10:30:58;;;;;;;5.88;5.60;;;;;;;19.44;58.78;100095.78;6080750;23;20030;-73
2022/06/19 10:33:39;;;;;;;6.15;5.85;;;;;;;21.19;57.65;100386.53;6075109;23;20006;-73
2022/06/19 10:36:19;;;;;;;6.80;6.35;;;;;;;22.12;54.67;100424.09;6076323;23;20271;-72
2022/06/19 10:39:28;;;;;;;7.00;6.70;;;;;;;22.85;48.71;100427.94;6059251;23;20034;-69
2022/06/19 10:42:11;;;;;;;7.55;7.15;;;;;;;22.78;49.45;100418.91;6016700;23;20016;-73
2022/06/19 10:44:53;;;;;;;5.50;5.18;;;;;;;23.53;50.70;100448.16;6048563;23;20029;-70
2022/06/19 10:47:25;;;;;;;5.88;5.57;;;;;;;24.00;49.06;100443.88;6051283;23;20031;-70
2022/06/19 10:50:02;;;;;;;7.13;6.82;;;;;;;24.71;46.78;100452.72;6043012;23;20034;-70
2022/06/19 10:52:48;;;;;;;6.47;5.95;;;;;;;24.91;45.10;100482.59;6001100;23;20026;-71
2022/06/19 10:55:36;;;;;;;6.15;5.85;;;;;;;25.04;43.91;100516.91;6076106;23;20055;-71
2022/06/19 10:58:14;;;;;;;6.00;5.70;;;;;;;25.02;44.02;100497.47;6045202;23;20526;-72
2022/06/19 11:00:41;;;;;;;7.53;6.15;;;;;;;24.24;45.80;100486.66;6053150;23;20154;-69
2022/06/19 11:06:37;;;;;;;6.07;5.78;;;;;;;23.96;44.74;100472.88;6040959;23;20027;-70
2022/06/19 11:09:07;;;;;;;5.82;5.53;;;;;;;24.24;45.88;100481.28;6073286;23;20018;-70
2022/06/19 11:11:37;;;;;;;5.68;5.38;;;;;;;24.28;45.57;100449.59;6071415;23;20225;-69
2022/06/19 11:14:10;;;;;;;5.95;5.65;;;;;;;24.84;43.20;100493.22;6076060;23;20293;-71
2022/06/19 11:16:59;;;;;;;6.18;5.88;;;;;;;24.08;44.97;100450.03;6062958;23;20120;-71
2022/06/19 11:19:37;;;;;;;5.93;5.55;;;;;;;23.88;44.82;100459.50;6088380;23;20054;-70
2022/06/19 11:22:29;;;;;;;5.47;5.28;;;;;;;23.81;45.10;100427.16;6070286;23;20389;-70
2022/06/19 11:25:19;;;;;;;7.38;7.05;;;;;;;23.89;44.43;100306.56;6099657;23;20024;-70
2022/06/19 11:27:51;;;;;;;7.57;7.18;;;;;;;23.73;44.07;100360.19;6065078;23;20093;-70
2022/06/19 11:30:37;;;;;;;6.15;5.65;;;;;;;24.40;44.87;100421.38;6061039;23;20113;-74
2022/06/19 11:33:10;;;;;;;6.20;5.90;;;;;;;23.70;45.05;100361.38;6055472;23;20026;-71
2022/06/19 11:35:56;;;;;;;5.80;5.50;;;;;;;23.39;44.38;100289.00;6070053;23;20112;-73
2022/06/19 11:38:42;;;;;;;5.85;5.45;;;;;;;24.27;43.92;100458.66;6058437;23;20022;-71
2022/06/19 11:41:32;;;;;;;5.78;5.47;;;;;;;23.93;45.07;100418.75;6059318;23;20090;-74
2022/06/19 11:44:04;;;;;;;6.80;6.50;;;;;;;23.10;45.84;100295.81;6045322;23;20278;-72
2022/06/19 11:46:31;;;;;;;5.68;5.47;;;;;;;24.02;45.37;100444.53;6066924;23;20097;-72
2022/06/19 11:49:26;;;;;;;6.95;6.65;;;;;;;23.89;46.32;100488.81;6077539;23;20406;-70
2022/06/19 11:52:03;;;;;;;5.60;5.40;;;;;;;24.32;45.11;100493.00;6073226;23;20319;-72
2022/06/19 11:54:34;;;;;;;5.47;5.28;;;;;;;24.71;44.90;100517.13;6058108;23;20093;-70
2022/06/19 11:57:02;;;;;;;5.67;5.40;;;;;;;25.24;44.00;100512.75;6059373;23;20437;-72